sensor_id;sensor_type;location;lat;lon;timestamp;P1;durP1;ratioP1;P2;durP2;ratioP2
57307;SDS011;43152;50.968;18.214;2024-02-23T00:07:28;9.40;;;4.50;;
57307;SDS011;43152;50.968;18.214;2024-02-23T00:17:10;7.00;;;3.00;;
57307;SDS011;43152;50.968;18.214;2024-02-23T00:26:54;11.70;;;3.30;;
57307;SDS011;43152;50.968;18.214;2024-02-23T00:36:41;11.70;;;4.50;;
57307;SDS011;43152;50.968;18.214;2024-02-23T00:46:27;10.20;;;3.60;;
57307;SDS011;43152;50.968;18.214;2024-02-23T00:56:10;6.90;;;2.70;;
57307;SDS011;43152;50.968;18.214;2024-02-23T01:05:52;8.50;;;3.60;;
57307;SDS011;43152;50.968;18.214;2024-02-23T01:15:35;8.20;;;3.30;;
57307;SDS011;43152;50.968;18.214;2024-02-23T01:32:36;8.10;;;3.30;;
57307;SDS011;43152;50.968;18.214;2024-02-23T01:42:24;10.00;;;4.50;;
57307;SDS011;43152;50.968;18.214;2024-02-23T01:52:08;8.50;;;3.80;;
57307;SDS011;43152;50.968;18.214;2024-02-23T02:01:51;8.70;;;4.20;;
57307;SDS011;43152;50.968;18.214;2024-02-23T02:11:32;11.70;;;4.40;;
57307;SDS011;43152;50.968;18.214;2024-02-23T02:21:14;10.30;;;4.90;;
57307;SDS011;43152;50.968;18.214;2024-02-23T02:30:56;14.80;;;5.00;;
57307;SDS011;43152;50.968;18.214;2024-02-23T02:40:40;15.20;;;4.50;;
57307;SDS011;43152;50.968;18.214;2024-02-23T02:50:22;11.10;;;5.00;;
57307;SDS011;43152;50.968;18.214;2024-02-23T03:00:05;15.40;;;6.00;;
57307;SDS011;43152;50.968;18.214;2024-02-23T03:09:47;8.70;;;3.70;;
57307;SDS011;43152;50.968;18.214;2024-02-23T03:19:32;15.30;;;4.20;;
57307;SDS011;43152;50.968;18.214;2024-02-23T03:29:14;9.30;;;3.70;;
57307;SDS011;43152;50.968;18.214;2024-02-23T03:38:56;9.80;;;4.40;;
57307;SDS011;43152;50.968;18.214;2024-02-23T03:48:40;13.40;;;3.80;;
57307;SDS011;43152;50.968;18.214;2024-02-23T03:58:22;11.80;;;3.70;;
57307;SDS011;43152;50.968;18.214;2024-02-23T04:08:04;8.80;;;3.80;;
57307;SDS011;43152;50.968;18.214;2024-02-23T04:17:46;8.40;;;3.50;;
57307;SDS011;43152;50.968;18.214;2024-02-23T04:27:28;8.30;;;3.90;;
57307;SDS011;43152;50.968;18.214;2024-02-23T04:37:10;8.40;;;3.70;;
57307;SDS011;43152;50.968;18.214;2024-02-23T04:46:54;7.80;;;2.80;;
57307;SDS011;43152;50.968;18.214;2024-02-23T04:56:36;10.20;;;3.20;;
57307;SDS011;43152;50.968;18.214;2024-02-23T05:06:18;6.30;;;2.50;;
57307;SDS011;43152;50.968;18.214;2024-02-23T05:16:00;7.30;;;2.80;;
57307;SDS011;43152;50.968;18.214;2024-02-23T05:32:58;2.00;;;1.10;;
57307;SDS011;43152;50.968;18.214;2024-02-23T05:42:41;5.90;;;2.20;;
57307;SDS011;43152;50.968;18.214;2024-02-23T05:52:30;7.70;;;3.70;;
57307;SDS011;43152;50.968;18.214;2024-02-23T06:02:13;10.80;;;4.20;;
57307;SDS011;43152;50.968;18.214;2024-02-23T06:11:56;32.20;;;7.80;;
57307;SDS011;43152;50.968;18.214;2024-02-23T06:21:40;19.90;;;7.80;;
57307;SDS011;43152;50.968;18.214;2024-02-23T06:31:25;16.50;;;6.00;;
57307;SDS011;43152;50.968;18.214;2024-02-23T06:41:10;15.20;;;5.60;;
57307;SDS011;43152;50.968;18.214;2024-02-23T06:51:04;10.40;;;4.10;;
57307;SDS011;43152;50.968;18.214;2024-02-23T07:00:46;17.70;;;3.80;;
57307;SDS011;43152;50.968;18.214;2024-02-23T07:10:29;9.60;;;3.80;;
57307;SDS011;43152;50.968;18.214;2024-02-23T07:20:15;13.90;;;5.10;;
57307;SDS011;43152;50.968;18.214;2024-02-23T07:48:17;16.10;;;8.90;;
57307;SDS011;43152;50.968;18.214;2024-02-23T07:57:59;14.80;;;6.10;;
57307;SDS011;43152;50.968;18.214;2024-02-23T08:07:49;8.40;;;4.00;;
57307;SDS011;43152;50.968;18.214;2024-02-23T08:17:31;26.20;;;4.00;;
57307;SDS011;43152;50.968;18.214;2024-02-23T08:27:14;10.20;;;3.50;;
57307;SDS011;43152;50.968;18.214;2024-02-23T08:36:57;7.30;;;3.50;;
57307;SDS011;43152;50.968;18.214;2024-02-23T08:46:42;10.00;;;3.00;;
57307;SDS011;43152;50.968;18.214;2024-02-23T08:56:29;6.40;;;2.00;;
57307;SDS011;43152;50.968;18.214;2024-02-23T09:06:12;7.70;;;2.10;;
57307;SDS011;43152;50.968;18.214;2024-02-23T09:15:57;11.30;;;2.80;;
57307;SDS011;43152;50.968;18.214;2024-02-23T09:25:39;4.90;;;1.20;;
57307;SDS011;43152;50.968;18.214;2024-02-23T09:35:21;6.60;;;2.10;;
57307;SDS011;43152;50.968;18.214;2024-02-23T09:45:06;9.00;;;2.30;;
57307;SDS011;43152;50.968;18.214;2024-02-23T09:54:49;17.70;;;1.90;;
57307;SDS011;43152;50.968;18.214;2024-02-23T10:04:34;4.90;;;2.00;;
57307;SDS011;43152;50.968;18.214;2024-02-23T10:14:17;7.90;;;2.30;;
57307;SDS011;43152;50.968;18.214;2024-02-23T10:24:00;12.90;;;2.20;;
57307;SDS011;43152;50.968;18.214;2024-02-23T10:33:44;7.40;;;2.30;;
57307;SDS011;43152;50.968;18.214;2024-02-23T10:43:29;4.90;;;1.60;;
57307;SDS011;43152;50.968;18.214;2024-02-23T10:53:19;5.40;;;2.00;;
57307;SDS011;43152;50.968;18.214;2024-02-23T11:03:04;7.00;;;2.90;;
57307;SDS011;43152;50.968;18.214;2024-02-23T11:12:58;4.20;;;1.80;;
57307;SDS011;43152;50.968;18.214;2024-02-23T11:22:45;6.00;;;1.30;;
57307;SDS011;43152;50.968;18.214;2024-02-23T11:42:36;3.20;;;0.90;;
57307;SDS011;43152;50.968;18.214;2024-02-23T11:52:19;3.80;;;0.90;;
57307;SDS011;43152;50.968;18.214;2024-02-23T12:02:02;4.40;;;1.30;;
57307;SDS011;43152;50.968;18.214;2024-02-23T12:11:45;7.30;;;1.40;;
57307;SDS011;43152;50.968;18.214;2024-02-23T12:21:28;12.20;;;5.20;;
57307;SDS011;43152;50.968;18.214;2024-02-23T12:31:10;3.40;;;1.10;;
57307;SDS011;43152;50.968;18.214;2024-02-23T12:40:54;11.30;;;2.10;;
57307;SDS011;43152;50.968;18.214;2024-02-23T12:50:42;14.00;;;3.30;;
57307;SDS011;43152;50.968;18.214;2024-02-23T13:00:27;7.80;;;2.10;;
57307;SDS011;43152;50.968;18.214;2024-02-23T13:10:11;13.20;;;4.50;;
57307;SDS011;43152;50.968;18.214;2024-02-23T13:19:54;27.70;;;13.70;;
57307;SDS011;43152;50.968;18.214;2024-02-23T13:29:36;102.30;;;42.30;;
57307;SDS011;43152;50.968;18.214;2024-02-23T13:39:18;34.50;;;16.60;;
57307;SDS011;43152;50.968;18.214;2024-02-23T13:49:02;17.00;;;7.50;;
57307;SDS011;43152;50.968;18.214;2024-02-23T13:58:45;50.20;;;22.10;;
57307;SDS011;43152;50.968;18.214;2024-02-23T14:08:29;56.40;;;33.60;;
57307;SDS011;43152;50.968;18.214;2024-02-23T14:18:16;93.40;;;43.20;;
57307;SDS011;43152;50.968;18.214;2024-02-23T14:27:58;96.70;;;31.40;;
57307;SDS011;43152;50.968;18.214;2024-02-23T14:37:40;99.70;;;25.50;;
57307;SDS011;43152;50.968;18.214;2024-02-23T14:47:23;23.80;;;10.80;;
57307;SDS011;43152;50.968;18.214;2024-02-23T14:57:06;7.60;;;2.20;;
57307;SDS011;43152;50.968;18.214;2024-02-23T15:06:52;6.20;;;2.70;;
57307;SDS011;43152;50.968;18.214;2024-02-23T15:16:35;12.00;;;3.60;;
57307;SDS011;43152;50.968;18.214;2024-02-23T15:26:17;10.30;;;2.40;;
57307;SDS011;43152;50.968;18.214;2024-02-23T15:36:04;14.80;;;4.10;;
57307;SDS011;43152;50.968;18.214;2024-02-23T15:45:53;25.60;;;7.70;;
57307;SDS011;43152;50.968;18.214;2024-02-23T15:55:36;18.70;;;8.80;;
57307;SDS011;43152;50.968;18.214;2024-02-23T16:05:19;34.10;;;12.30;;
57307;SDS011;43152;50.968;18.214;2024-02-23T16:15:07;29.10;;;12.40;;
57307;SDS011;43152;50.968;18.214;2024-02-23T16:24:51;49.70;;;24.20;;
57307;SDS011;43152;50.968;18.214;2024-02-23T16:34:34;47.30;;;21.40;;
57307;SDS011;43152;50.968;18.214;2024-02-23T16:44:16;33.50;;;15.60;;
57307;SDS011;43152;50.968;18.214;2024-02-23T16:54:03;23.00;;;12.80;;
57307;SDS011;43152;50.968;18.214;2024-02-23T17:03:45;19.40;;;9.60;;
57307;SDS011;43152;50.968;18.214;2024-02-23T17:13:31;54.20;;;20.10;;
57307;SDS011;43152;50.968;18.214;2024-02-23T17:23:15;40.80;;;20.10;;
57307;SDS011;43152;50.968;18.214;2024-02-23T17:32:57;26.00;;;13.60;;
57307;SDS011;43152;50.968;18.214;2024-02-23T17:42:39;21.10;;;9.80;;
57307;SDS011;43152;50.968;18.214;2024-02-23T17:52:23;24.00;;;10.10;;
57307;SDS011;43152;50.968;18.214;2024-02-23T18:02:04;39.00;;;16.90;;
57307;SDS011;43152;50.968;18.214;2024-02-23T18:11:47;24.40;;;12.00;;
57307;SDS011;43152;50.968;18.214;2024-02-23T18:21:30;20.90;;;8.70;;
57307;SDS011;43152;50.968;18.214;2024-02-23T18:31:15;17.10;;;7.40;;
57307;SDS011;43152;50.968;18.214;2024-02-23T18:41:04;14.10;;;6.90;;
57307;SDS011;43152;50.968;18.214;2024-02-23T18:50:49;12.20;;;4.60;;
57307;SDS011;43152;50.968;18.214;2024-02-23T19:00:33;18.10;;;6.10;;
57307;SDS011;43152;50.968;18.214;2024-02-23T19:10:16;16.30;;;7.00;;
57307;SDS011;43152;50.968;18.214;2024-02-23T19:20:01;14.70;;;5.90;;
57307;SDS011;43152;50.968;18.214;2024-02-23T19:29:45;13.90;;;6.50;;
57307;SDS011;43152;50.968;18.214;2024-02-23T19:39:27;21.90;;;9.30;;
57307;SDS011;43152;50.968;18.214;2024-02-23T19:49:11;16.60;;;9.20;;
57307;SDS011;43152;50.968;18.214;2024-02-23T19:58:55;25.50;;;10.90;;
57307;SDS011;43152;50.968;18.214;2024-02-23T20:08:40;26.30;;;11.10;;
57307;SDS011;43152;50.968;18.214;2024-02-23T20:18:24;21.00;;;12.40;;
57307;SDS011;43152;50.968;18.214;2024-02-23T20:28:07;29.20;;;14.10;;
57307;SDS011;43152;50.968;18.214;2024-02-23T20:37:50;26.30;;;11.00;;
57307;SDS011;43152;50.968;18.214;2024-02-23T20:47:35;28.20;;;15.00;;
57307;SDS011;43152;50.968;18.214;2024-02-23T20:57:18;28.50;;;13.60;;
57307;SDS011;43152;50.968;18.214;2024-02-23T21:07:04;30.00;;;14.60;;
57307;SDS011;43152;50.968;18.214;2024-02-23T21:16:47;28.10;;;13.40;;
57307;SDS011;43152;50.968;18.214;2024-02-23T21:26:31;23.20;;;12.00;;
57307;SDS011;43152;50.968;18.214;2024-02-23T21:36:18;34.10;;;12.90;;
57307;SDS011;43152;50.968;18.214;2024-02-23T21:46:04;36.80;;;14.60;;
57307;SDS011;43152;50.968;18.214;2024-02-23T21:55:49;32.40;;;14.10;;
57307;SDS011;43152;50.968;18.214;2024-02-23T22:05:31;28.80;;;15.70;;
57307;SDS011;43152;50.968;18.214;2024-02-23T22:15:13;27.70;;;14.40;;
57307;SDS011;43152;50.968;18.214;2024-02-23T22:24:57;23.50;;;11.50;;
57307;SDS011;43152;50.968;18.214;2024-02-23T22:34:47;24.00;;;11.10;;
57307;SDS011;43152;50.968;18.214;2024-02-23T22:44:31;23.40;;;12.30;;
57307;SDS011;43152;50.968;18.214;2024-02-23T22:54:13;31.50;;;14.50;;
57307;SDS011;43152;50.968;18.214;2024-02-23T23:21:17;25.60;;;12.70;;
57307;SDS011;43152;50.968;18.214;2024-02-23T23:30:59;21.90;;;10.90;;
57307;SDS011;43152;50.968;18.214;2024-02-23T23:40:41;36.10;;;12.80;;
57307;SDS011;43152;50.968;18.214;2024-02-23T23:50:24;23.20;;;10.80;;
